OICS  Sanandaj  Airport

Iran

Add Bookmark
ICAO OICS
IATA SDG
Type Airport
Status Operational
Latitude
35° 14' 45" N
35.245899
Longitude
47° 0' 33" E
47.009201
Local (DST + 5) UTC (GMT + 4)
Apr 21, 2015 09:31 Apr 21, 2015 05:01
Sunrise-Sunset Local UTC
Begin Civil Twilight 06:14 01:44
Sunrise 06:40 02:10
Sunset 08:00 15:30
End Civil Twilight 08:27 15:57
VFR
VFR
MVFR
MVFR
IFR
VFR
LIFR
VFR
Unknown
Unavailable

Current Weather

METAR Observed VFR
OICS 210430Z 18012KT 9000 FEW040 18/M06 Q1016 Tue, Apr 21, 2015 @ 04:30 UTC
(31 Minutes ago)
Visual Flight Rules
Wind Visibility Clouds Conditions
180° at 12 knots (22 kph) 8,996 m
  • Few at 4,000 ft AGL
  • No significant weather
Temperatures Readings Precipitation
Current Temp
18°C
64°F
Dewpoint
-6°C
21°F
Humidity 19%
Altimeter 30" Hg
Sea Level Pressure 1,016 mb
Field Elevation
1,373 m
4,505 ft
None Recorded
-
-

CheckWX.com is intended as a tool to help pilots better visualize weather data. It is not intended as a substitute for an official weather briefing obtained from a Flight Service Station. CheckWX.com does not meet the FAA requirements for an official pre-flight weather briefing. Therefore, it's important that pilots still call and obtain an official FSS pre-flight weather briefing.

© 2007-2015 CheckWX.com
05:01:04 UTC